sensor_id;sensor_type;location;lat;lon;timestamp;P1;durP1;ratioP1;P2;durP2;ratioP2
74473;SDS011;62922;-6.168;106.796;2023-01-10T00:01:15;21.40;;;6.18;;
74473;SDS011;62922;-6.168;106.796;2023-01-10T00:03:41;13.93;;;5.70;;
74473;SDS011;62922;-6.168;106.796;2023-01-10T00:06:07;27.15;;;6.20;;
74473;SDS011;62922;-6.168;106.796;2023-01-10T00:08:34;16.27;;;6.03;;
74473;SDS011;62922;-6.168;106.796;2023-01-10T00:11:00;17.92;;;6.13;;
74473;SDS011;62922;-6.168;106.796;2023-01-10T00:13:46;14.40;;;6.10;;
74473;SDS011;62922;-6.168;106.796;2023-01-10T00:16:12;18.80;;;6.78;;
74473;SDS011;62922;-6.168;106.796;2023-01-10T00:18:38;15.60;;;6.50;;
74473;SDS011;62922;-6.168;106.796;2023-01-10T00:21:07;17.65;;;6.75;;
74473;SDS011;62922;-6.168;106.796;2023-01-10T00:23:34;17.45;;;6.63;;
74473;SDS011;62922;-6.168;106.796;2023-01-10T00:26:01;17.10;;;6.78;;
74473;SDS011;62922;-6.168;106.796;2023-01-10T00:28:27;15.50;;;6.20;;
74473;SDS011;62922;-6.168;106.796;2023-01-10T00:30:56;17.77;;;6.65;;
74473;SDS011;62922;-6.168;106.796;2023-01-10T00:33:30;18.60;;;6.72;;
74473;SDS011;62922;-6.168;106.796;2023-01-10T00:35:58;24.08;;;6.72;;
74473;SDS011;62922;-6.168;106.796;2023-01-10T00:38:25;17.35;;;6.55;;
74473;SDS011;62922;-6.168;106.796;2023-01-10T00:40:55;19.75;;;7.07;;
74473;SDS011;62922;-6.168;106.796;2023-01-10T00:43:22;18.13;;;7.18;;
74473;SDS011;62922;-6.168;106.796;2023-01-10T00:45:51;23.85;;;7.25;;
74473;SDS011;62922;-6.168;106.796;2023-01-10T00:48:17;27.83;;;8.82;;
74473;SDS011;62922;-6.168;106.796;2023-01-10T00:50:44;23.25;;;8.65;;
74473;SDS011;62922;-6.168;106.796;2023-01-10T00:53:11;21.42;;;8.40;;
74473;SDS011;62922;-6.168;106.796;2023-01-10T00:55:37;22.55;;;8.32;;
74473;SDS011;62922;-6.168;106.796;2023-01-10T00:58:05;21.00;;;8.27;;
74473;SDS011;62922;-6.168;106.796;2023-01-10T01:00:35;23.95;;;7.95;;
74473;SDS011;62922;-6.168;106.796;2023-01-10T01:03:03;23.98;;;8.73;;
74473;SDS011;62922;-6.168;106.796;2023-01-10T01:05:30;21.40;;;8.70;;
74473;SDS011;62922;-6.168;106.796;2023-01-10T01:07:56;27.50;;;7.93;;
74473;SDS011;62922;-6.168;106.796;2023-01-10T01:10:23;18.52;;;7.68;;
74473;SDS011;62922;-6.168;106.796;2023-01-10T01:12:54;25.08;;;7.68;;
74473;SDS011;62922;-6.168;106.796;2023-01-10T01:15:22;25.88;;;8.05;;
74473;SDS011;62922;-6.168;106.796;2023-01-10T01:17:52;20.50;;;7.88;;
74473;SDS011;62922;-6.168;106.796;2023-01-10T01:20:19;23.27;;;7.90;;
74473;SDS011;62922;-6.168;106.796;2023-01-10T01:22:46;21.30;;;7.43;;
74473;SDS011;62922;-6.168;106.796;2023-01-10T01:25:12;25.77;;;7.72;;
74473;SDS011;62922;-6.168;106.796;2023-01-10T01:27:39;19.63;;;7.45;;
74473;SDS011;62922;-6.168;106.796;2023-01-10T01:30:06;20.70;;;7.40;;
74473;SDS011;62922;-6.168;106.796;2023-01-10T01:32:33;26.40;;;8.13;;
74473;SDS011;62922;-6.168;106.796;2023-01-10T01:35:00;24.27;;;7.97;;
74473;SDS011;62922;-6.168;106.796;2023-01-10T01:37:26;20.02;;;7.50;;
74473;SDS011;62922;-6.168;106.796;2023-01-10T01:39:52;23.90;;;8.30;;
74473;SDS011;62922;-6.168;106.796;2023-01-10T01:42:27;24.67;;;8.45;;
74473;SDS011;62922;-6.168;106.796;2023-01-10T01:47:27;19.90;;;7.80;;
74473;SDS011;62922;-6.168;106.796;2023-01-10T01:49:53;19.23;;;7.70;;
74473;SDS011;62922;-6.168;106.796;2023-01-10T01:52:22;19.02;;;7.85;;
74473;SDS011;62922;-6.168;106.796;2023-01-10T01:54:53;28.60;;;8.70;;
74473;SDS011;62922;-6.168;106.796;2023-01-10T01:57:22;22.98;;;8.10;;
74473;SDS011;62922;-6.168;106.796;2023-01-10T01:59:51;23.55;;;8.07;;
74473;SDS011;62922;-6.168;106.796;2023-01-10T02:02:34;21.90;;;8.35;;
74473;SDS011;62922;-6.168;106.796;2023-01-10T02:05:06;20.33;;;7.47;;
74473;SDS011;62922;-6.168;106.796;2023-01-10T02:07:36;19.15;;;7.28;;
74473;SDS011;62922;-6.168;106.796;2023-01-10T02:10:21;26.67;;;7.43;;
74473;SDS011;62922;-6.168;106.796;2023-01-10T02:12:55;26.33;;;8.05;;
74473;SDS011;62922;-6.168;106.796;2023-01-10T02:15:26;22.40;;;8.07;;
74473;SDS011;62922;-6.168;106.796;2023-01-10T02:17:53;22.98;;;8.00;;
74473;SDS011;62922;-6.168;106.796;2023-01-10T02:20:21;23.77;;;8.25;;
74473;SDS011;62922;-6.168;106.796;2023-01-10T02:33:13;23.40;;;8.32;;
74473;SDS011;62922;-6.168;106.796;2023-01-10T02:41:25;19.42;;;8.40;;
74473;SDS011;62922;-6.168;106.796;2023-01-10T02:43:56;23.08;;;8.07;;
74473;SDS011;62922;-6.168;106.796;2023-01-10T02:46:29;17.83;;;7.10;;
74473;SDS011;62922;-6.168;106.796;2023-01-10T02:48:57;28.98;;;7.82;;
74473;SDS011;62922;-6.168;106.796;2023-01-10T02:51:27;19.92;;;7.97;;
74473;SDS011;62922;-6.168;106.796;2023-01-10T03:07:26;25.40;;;8.32;;
74473;SDS011;62922;-6.168;106.796;2023-01-10T03:09:28;24.85;;;7.85;;
74473;SDS011;62922;-6.168;106.796;2023-01-10T03:12:03;23.90;;;8.13;;
74473;SDS011;62922;-6.168;106.796;2023-01-10T03:14:37;24.20;;;8.00;;
74473;SDS011;62922;-6.168;106.796;2023-01-10T03:17:17;24.10;;;8.27;;
74473;SDS011;62922;-6.168;106.796;2023-01-10T03:19:46;21.52;;;7.68;;
74473;SDS011;62922;-6.168;106.796;2023-01-10T03:22:16;26.92;;;8.90;;
74473;SDS011;62922;-6.168;106.796;2023-01-10T03:24:44;25.63;;;9.55;;
74473;SDS011;62922;-6.168;106.796;2023-01-10T03:29:44;27.70;;;10.93;;
74473;SDS011;62922;-6.168;106.796;2023-01-10T03:32:18;23.23;;;10.77;;
74473;SDS011;62922;-6.168;106.796;2023-01-10T03:34:48;27.02;;;11.40;;
74473;SDS011;62922;-6.168;106.796;2023-01-10T03:37:16;27.95;;;11.75;;
74473;SDS011;62922;-6.168;106.796;2023-01-10T03:42:34;31.80;;;11.30;;
74473;SDS011;62922;-6.168;106.796;2023-01-10T03:45:23;18.35;;;8.73;;
74473;SDS011;62922;-6.168;106.796;2023-01-10T03:47:57;25.65;;;9.02;;
74473;SDS011;62922;-6.168;106.796;2023-01-10T03:50:28;24.17;;;9.65;;
74473;SDS011;62922;-6.168;106.796;2023-01-10T03:52:56;26.45;;;9.55;;
74473;SDS011;62922;-6.168;106.796;2023-01-10T03:55:24;27.75;;;9.80;;
74473;SDS011;62922;-6.168;106.796;2023-01-10T03:57:53;20.60;;;8.30;;
74473;SDS011;62922;-6.168;106.796;2023-01-10T04:00:19;16.92;;;7.75;;
74473;SDS011;62922;-6.168;106.796;2023-01-10T04:02:46;21.17;;;7.47;;
74473;SDS011;62922;-6.168;106.796;2023-01-10T04:05:12;24.27;;;7.85;;
74473;SDS011;62922;-6.168;106.796;2023-01-10T04:07:38;21.55;;;7.25;;
74473;SDS011;62922;-6.168;106.796;2023-01-10T04:10:05;28.45;;;7.70;;
74473;SDS011;62922;-6.168;106.796;2023-01-10T04:12:33;21.10;;;7.35;;
74473;SDS011;62922;-6.168;106.796;2023-01-10T04:14:59;21.38;;;7.72;;
74473;SDS011;62922;-6.168;106.796;2023-01-10T04:17:25;20.95;;;7.63;;
74473;SDS011;62922;-6.168;106.796;2023-01-10T04:19:52;24.60;;;7.45;;
74473;SDS011;62922;-6.168;106.796;2023-01-10T04:22:18;21.55;;;7.30;;
74473;SDS011;62922;-6.168;106.796;2023-01-10T04:24:45;22.80;;;7.00;;
74473;SDS011;62922;-6.168;106.796;2023-01-10T04:27:12;19.85;;;7.03;;
74473;SDS011;62922;-6.168;106.796;2023-01-10T04:29:39;20.77;;;6.88;;
74473;SDS011;62922;-6.168;106.796;2023-01-10T04:32:05;21.45;;;6.63;;
74473;SDS011;62922;-6.168;106.796;2023-01-10T04:34:31;20.55;;;6.85;;
74473;SDS011;62922;-6.168;106.796;2023-01-10T04:36:58;23.27;;;6.47;;
74473;SDS011;62922;-6.168;106.796;2023-01-10T04:39:24;23.88;;;7.03;;
74473;SDS011;62922;-6.168;106.796;2023-01-10T04:41:50;19.50;;;6.45;;
74473;SDS011;62922;-6.168;106.796;2023-01-10T04:44:16;19.83;;;6.68;;
74473;SDS011;62922;-6.168;106.796;2023-01-10T04:46:43;27.23;;;7.13;;
74473;SDS011;62922;-6.168;106.796;2023-01-10T04:49:09;25.17;;;6.35;;
74473;SDS011;62922;-6.168;106.796;2023-01-10T04:51:36;22.02;;;5.72;;
74473;SDS011;62922;-6.168;106.796;2023-01-10T04:54:03;20.75;;;6.78;;
74473;SDS011;62922;-6.168;106.796;2023-01-10T04:56:31;19.65;;;5.68;;
74473;SDS011;62922;-6.168;106.796;2023-01-10T04:58:58;20.45;;;6.40;;
74473;SDS011;62922;-6.168;106.796;2023-01-10T05:01:24;20.23;;;5.63;;
74473;SDS011;62922;-6.168;106.796;2023-01-10T05:03:52;21.30;;;5.95;;
74473;SDS011;62922;-6.168;106.796;2023-01-10T05:06:20;14.00;;;5.45;;
74473;SDS011;62922;-6.168;106.796;2023-01-10T05:08:47;22.80;;;5.97;;
74473;SDS011;62922;-6.168;106.796;2023-01-10T05:11:16;19.02;;;5.57;;
74473;SDS011;62922;-6.168;106.796;2023-01-10T05:13:45;18.10;;;5.68;;
74473;SDS011;62922;-6.168;106.796;2023-01-10T05:16:11;17.45;;;5.70;;
74473;SDS011;62922;-6.168;106.796;2023-01-10T05:18:37;19.15;;;5.47;;
74473;SDS011;62922;-6.168;106.796;2023-01-10T05:21:05;18.95;;;5.35;;
74473;SDS011;62922;-6.168;106.796;2023-01-10T05:23:33;20.17;;;5.65;;
74473;SDS011;62922;-6.168;106.796;2023-01-10T05:28:34;16.15;;;5.07;;
74473;SDS011;62922;-6.168;106.796;2023-01-10T05:31:00;18.20;;;5.07;;
74473;SDS011;62922;-6.168;106.796;2023-01-10T05:33:29;11.05;;;4.10;;
74473;SDS011;62922;-6.168;106.796;2023-01-10T05:35:56;20.48;;;5.30;;
74473;SDS011;62922;-6.168;106.796;2023-01-10T05:38:22;17.15;;;4.95;;
74473;SDS011;62922;-6.168;106.796;2023-01-10T05:40:53;16.90;;;4.78;;
74473;SDS011;62922;-6.168;106.796;2023-01-10T05:45:46;14.45;;;4.63;;
74473;SDS011;62922;-6.168;106.796;2023-01-10T05:48:13;19.98;;;6.15;;
74473;SDS011;62922;-6.168;106.796;2023-01-10T05:50:39;19.55;;;6.78;;
74473;SDS011;62922;-6.168;106.796;2023-01-10T05:53:05;13.27;;;5.55;;
74473;SDS011;62922;-6.168;106.796;2023-01-10T05:55:34;14.35;;;5.07;;
74473;SDS011;62922;-6.168;106.796;2023-01-10T05:58:00;21.23;;;6.93;;
74473;SDS011;62922;-6.168;106.796;2023-01-10T06:00:27;51.75;;;18.40;;
74473;SDS011;62922;-6.168;106.796;2023-01-10T06:02:54;90.65;;;27.67;;
74473;SDS011;62922;-6.168;106.796;2023-01-10T06:05:22;52.97;;;17.83;;
74473;SDS011;62922;-6.168;106.796;2023-01-10T06:07:49;38.58;;;13.00;;
74473;SDS011;62922;-6.168;106.796;2023-01-10T06:10:16;27.58;;;10.18;;
74473;SDS011;62922;-6.168;106.796;2023-01-10T06:12:45;23.67;;;8.10;;
74473;SDS011;62922;-6.168;106.796;2023-01-10T06:15:14;19.95;;;7.30;;
74473;SDS011;62922;-6.168;106.796;2023-01-10T06:17:41;23.52;;;7.93;;
74473;SDS011;62922;-6.168;106.796;2023-01-10T06:20:09;18.25;;;6.90;;
74473;SDS011;62922;-6.168;106.796;2023-01-10T06:22:40;13.82;;;6.10;;
74473;SDS011;62922;-6.168;106.796;2023-01-10T06:25:07;19.10;;;6.45;;
74473;SDS011;62922;-6.168;106.796;2023-01-10T06:27:36;10.85;;;5.40;;
74473;SDS011;62922;-6.168;106.796;2023-01-10T06:30:06;17.55;;;6.32;;
74473;SDS011;62922;-6.168;106.796;2023-01-10T06:32:34;11.13;;;5.25;;
74473;SDS011;62922;-6.168;106.796;2023-01-10T06:35:01;13.32;;;5.15;;
74473;SDS011;62922;-6.168;106.796;2023-01-10T06:37:31;10.23;;;5.32;;
74473;SDS011;62922;-6.168;106.796;2023-01-10T06:39:57;13.07;;;6.03;;
74473;SDS011;62922;-6.168;106.796;2023-01-10T06:42:24;12.20;;;5.75;;
74473;SDS011;62922;-6.168;106.796;2023-01-10T06:44:50;11.98;;;6.25;;
74473;SDS011;62922;-6.168;106.796;2023-01-10T06:47:16;13.60;;;5.47;;
74473;SDS011;62922;-6.168;106.796;2023-01-10T06:49:43;17.13;;;5.82;;
74473;SDS011;62922;-6.168;106.796;2023-01-10T06:52:09;12.30;;;5.75;;
74473;SDS011;62922;-6.168;106.796;2023-01-10T06:54:35;13.35;;;5.53;;
74473;SDS011;62922;-6.168;106.796;2023-01-10T06:57:01;11.07;;;5.20;;
74473;SDS011;62922;-6.168;106.796;2023-01-10T06:59:29;15.45;;;5.28;;
74473;SDS011;62922;-6.168;106.796;2023-01-10T07:01:55;12.07;;;4.70;;
74473;SDS011;62922;-6.168;106.796;2023-01-10T07:04:21;12.23;;;4.63;;
74473;SDS011;62922;-6.168;106.796;2023-01-10T07:06:47;13.43;;;5.43;;
74473;SDS011;62922;-6.168;106.796;2023-01-10T07:09:14;13.80;;;5.22;;
74473;SDS011;62922;-6.168;106.796;2023-01-10T07:11:40;14.38;;;5.25;;
74473;SDS011;62922;-6.168;106.796;2023-01-10T07:14:06;13.57;;;5.00;;
74473;SDS011;62922;-6.168;106.796;2023-01-10T07:16:34;14.27;;;5.85;;
74473;SDS011;62922;-6.168;106.796;2023-01-10T07:19:00;13.05;;;5.47;;
74473;SDS011;62922;-6.168;106.796;2023-01-10T07:21:27;14.75;;;5.30;;
74473;SDS011;62922;-6.168;106.796;2023-01-10T07:23:53;16.23;;;5.80;;
74473;SDS011;62922;-6.168;106.796;2023-01-10T07:26:20;12.57;;;5.40;;
74473;SDS011;62922;-6.168;106.796;2023-01-10T07:28:48;14.32;;;4.85;;
74473;SDS011;62922;-6.168;106.796;2023-01-10T07:31:16;12.20;;;5.18;;
74473;SDS011;62922;-6.168;106.796;2023-01-10T07:33:44;11.10;;;4.95;;
74473;SDS011;62922;-6.168;106.796;2023-01-10T07:36:11;12.90;;;5.10;;
74473;SDS011;62922;-6.168;106.796;2023-01-10T07:38:37;9.95;;;4.53;;
74473;SDS011;62922;-6.168;106.796;2023-01-10T07:41:03;9.90;;;4.93;;
74473;SDS011;62922;-6.168;106.796;2023-01-10T07:43:30;10.45;;;4.45;;
74473;SDS011;62922;-6.168;106.796;2023-01-10T07:45:57;13.13;;;4.88;;
74473;SDS011;62922;-6.168;106.796;2023-01-10T07:48:24;9.68;;;4.30;;
74473;SDS011;62922;-6.168;106.796;2023-01-10T07:53:24;8.15;;;4.47;;
74473;SDS011;62922;-6.168;106.796;2023-01-10T07:55:51;10.90;;;4.68;;
74473;SDS011;62922;-6.168;106.796;2023-01-10T07:58:17;8.13;;;4.75;;
74473;SDS011;62922;-6.168;106.796;2023-01-10T08:00:44;9.23;;;4.30;;
74473;SDS011;62922;-6.168;106.796;2023-01-10T08:03:13;10.45;;;4.60;;
74473;SDS011;62922;-6.168;106.796;2023-01-10T08:05:39;11.23;;;5.00;;
74473;SDS011;62922;-6.168;106.796;2023-01-10T08:08:07;10.60;;;4.78;;
74473;SDS011;62922;-6.168;106.796;2023-01-10T08:10:35;8.95;;;4.07;;
74473;SDS011;62922;-6.168;106.796;2023-01-10T08:13:02;11.85;;;4.80;;
74473;SDS011;62922;-6.168;106.796;2023-01-10T08:15:28;12.98;;;4.95;;
74473;SDS011;62922;-6.168;106.796;2023-01-10T08:20:26;17.52;;;5.60;;
74473;SDS011;62922;-6.168;106.796;2023-01-10T08:22:53;15.55;;;5.72;;
74473;SDS011;62922;-6.168;106.796;2023-01-10T08:25:21;23.92;;;6.43;;
74473;SDS011;62922;-6.168;106.796;2023-01-10T08:27:47;18.08;;;5.22;;
74473;SDS011;62922;-6.168;106.796;2023-01-10T08:30:13;18.13;;;5.32;;
74473;SDS011;62922;-6.168;106.796;2023-01-10T08:32:40;19.58;;;6.10;;
74473;SDS011;62922;-6.168;106.796;2023-01-10T08:35:06;16.08;;;5.55;;
74473;SDS011;62922;-6.168;106.796;2023-01-10T08:37:35;20.27;;;5.93;;
74473;SDS011;62922;-6.168;106.796;2023-01-10T08:40:02;16.45;;;5.65;;
74473;SDS011;62922;-6.168;106.796;2023-01-10T08:42:31;45.08;;;7.95;;
74473;SDS011;62922;-6.168;106.796;2023-01-10T08:44:58;13.82;;;4.43;;
74473;SDS011;62922;-6.168;106.796;2023-01-10T08:47:25;15.57;;;4.45;;
74473;SDS011;62922;-6.168;106.796;2023-01-10T08:49:52;18.63;;;5.30;;
74473;SDS011;62922;-6.168;106.796;2023-01-10T08:52:18;15.50;;;5.57;;
74473;SDS011;62922;-6.168;106.796;2023-01-10T08:54:45;19.88;;;5.53;;
74473;SDS011;62922;-6.168;106.796;2023-01-10T08:57:11;20.77;;;6.38;;
74473;SDS011;62922;-6.168;106.796;2023-01-10T08:59:40;16.45;;;6.35;;
74473;SDS011;62922;-6.168;106.796;2023-01-10T09:02:08;37.70;;;8.77;;
74473;SDS011;62922;-6.168;106.796;2023-01-10T09:04:37;15.10;;;6.03;;
74473;SDS011;62922;-6.168;106.796;2023-01-10T09:07:04;19.85;;;6.07;;
74473;SDS011;62922;-6.168;106.796;2023-01-10T09:09:30;18.60;;;5.88;;
74473;SDS011;62922;-6.168;106.796;2023-01-10T09:11:56;20.55;;;5.82;;
74473;SDS011;62922;-6.168;106.796;2023-01-10T09:14:23;16.42;;;5.80;;
74473;SDS011;62922;-6.168;106.796;2023-01-10T09:16:49;22.65;;;6.90;;
74473;SDS011;62922;-6.168;106.796;2023-01-10T09:19:17;21.38;;;5.88;;
74473;SDS011;62922;-6.168;106.796;2023-01-10T09:21:45;21.90;;;6.68;;
74473;SDS011;62922;-6.168;106.796;2023-01-10T09:24:11;18.08;;;6.07;;
74473;SDS011;62922;-6.168;106.796;2023-01-10T09:26:38;20.23;;;6.75;;
74473;SDS011;62922;-6.168;106.796;2023-01-10T09:29:07;19.63;;;6.68;;
74473;SDS011;62922;-6.168;106.796;2023-01-10T09:31:33;21.20;;;7.07;;
74473;SDS011;62922;-6.168;106.796;2023-01-10T09:33:59;22.45;;;6.90;;
74473;SDS011;62922;-6.168;106.796;2023-01-10T09:36:26;23.45;;;7.22;;
74473;SDS011;62922;-6.168;106.796;2023-01-10T09:38:52;17.95;;;6.97;;
74473;SDS011;62922;-6.168;106.796;2023-01-10T09:48:55;19.27;;;7.80;;
74473;SDS011;62922;-6.168;106.796;2023-01-10T09:51:28;17.73;;;7.03;;
74473;SDS011;62922;-6.168;106.796;2023-01-10T09:54:00;21.25;;;7.53;;
74473;SDS011;62922;-6.168;106.796;2023-01-10T09:56:31;19.98;;;7.60;;
74473;SDS011;62922;-6.168;106.796;2023-01-10T09:58:59;23.13;;;7.80;;
74473;SDS011;62922;-6.168;106.796;2023-01-10T10:01:29;16.83;;;6.45;;
74473;SDS011;62922;-6.168;106.796;2023-01-10T10:04:09;19.42;;;7.22;;
74473;SDS011;62922;-6.168;106.796;2023-01-10T10:06:47;25.20;;;7.80;;
74473;SDS011;62922;-6.168;106.796;2023-01-10T10:09:16;21.65;;;7.45;;
74473;SDS011;62922;-6.168;106.796;2023-01-10T10:32:12;22.58;;;8.73;;
74473;SDS011;62922;-6.168;106.796;2023-01-10T10:37:17;22.23;;;8.20;;
74473;SDS011;62922;-6.168;106.796;2023-01-10T10:39:51;21.42;;;8.18;;
74473;SDS011;62922;-6.168;106.796;2023-01-10T10:42:19;24.45;;;8.98;;
74473;SDS011;62922;-6.168;106.796;2023-01-10T10:47:16;22.48;;;8.80;;
74473;SDS011;62922;-6.168;106.796;2023-01-10T10:52:18;24.98;;;9.15;;
74473;SDS011;62922;-6.168;106.796;2023-01-10T10:54:47;25.15;;;9.13;;
74473;SDS011;62922;-6.168;106.796;2023-01-10T10:57:13;24.13;;;9.05;;
74473;SDS011;62922;-6.168;106.796;2023-01-10T10:59:46;24.02;;;9.13;;
74473;SDS011;62922;-6.168;106.796;2023-01-10T11:04:45;28.92;;;10.18;;
74473;SDS011;62922;-6.168;106.796;2023-01-10T11:07:15;31.15;;;11.07;;
74473;SDS011;62922;-6.168;106.796;2023-01-10T11:09:44;31.08;;;10.70;;
74473;SDS011;62922;-6.168;106.796;2023-01-10T11:12:15;32.63;;;11.07;;
74473;SDS011;62922;-6.168;106.796;2023-01-10T11:19:53;20.27;;;10.25;;
74473;SDS011;62922;-6.168;106.796;2023-01-10T11:22:23;25.10;;;10.40;;
74473;SDS011;62922;-6.168;106.796;2023-01-10T11:24:53;23.27;;;10.00;;
74473;SDS011;62922;-6.168;106.796;2023-01-10T11:27:23;22.35;;;9.57;;
74473;SDS011;62922;-6.168;106.796;2023-01-10T11:29:55;16.98;;;9.18;;
74473;SDS011;62922;-6.168;106.796;2023-01-10T11:32:30;20.73;;;10.13;;
74473;SDS011;62922;-6.168;106.796;2023-01-10T11:35:01;20.67;;;9.25;;
74473;SDS011;62922;-6.168;106.796;2023-01-10T11:37:33;21.30;;;9.60;;
74473;SDS011;62922;-6.168;106.796;2023-01-10T11:42:32;20.42;;;10.02;;
74473;SDS011;62922;-6.168;106.796;2023-01-10T11:45:36;22.90;;;10.38;;
74473;SDS011;62922;-6.168;106.796;2023-01-10T11:47:47;21.02;;;11.15;;
74473;SDS011;62922;-6.168;106.796;2023-01-10T11:50:20;26.45;;;11.77;;
74473;SDS011;62922;-6.168;106.796;2023-01-10T11:52:49;28.55;;;12.38;;
74473;SDS011;62922;-6.168;106.796;2023-01-10T11:55:18;20.58;;;10.63;;
74473;SDS011;62922;-6.168;106.796;2023-01-10T12:00:42;23.23;;;11.88;;
74473;SDS011;62922;-6.168;106.796;2023-01-10T12:03:14;27.52;;;11.73;;
74473;SDS011;62922;-6.168;106.796;2023-01-10T12:06:15;27.38;;;11.60;;
74473;SDS011;62922;-6.168;106.796;2023-01-10T12:08:43;20.52;;;11.25;;
74473;SDS011;62922;-6.168;106.796;2023-01-10T12:18:40;26.53;;;11.20;;
74473;SDS011;62922;-6.168;106.796;2023-01-10T12:21:07;21.67;;;10.73;;
74473;SDS011;62922;-6.168;106.796;2023-01-10T12:23:39;19.52;;;9.75;;
74473;SDS011;62922;-6.168;106.796;2023-01-10T12:26:11;24.08;;;10.98;;
74473;SDS011;62922;-6.168;106.796;2023-01-10T12:28:40;24.05;;;10.85;;
74473;SDS011;62922;-6.168;106.796;2023-01-10T12:31:13;23.33;;;10.90;;
74473;SDS011;62922;-6.168;106.796;2023-01-10T12:33:42;25.58;;;9.98;;
74473;SDS011;62922;-6.168;106.796;2023-01-10T12:41:27;16.85;;;7.90;;
74473;SDS011;62922;-6.168;106.796;2023-01-10T12:44:20;18.98;;;7.50;;
74473;SDS011;62922;-6.168;106.796;2023-01-10T12:46:54;21.58;;;7.55;;
74473;SDS011;62922;-6.168;106.796;2023-01-10T12:49:31;16.73;;;7.00;;
74473;SDS011;62922;-6.168;106.796;2023-01-10T12:52:04;15.77;;;5.85;;
74473;SDS011;62922;-6.168;106.796;2023-01-10T12:54:38;15.55;;;5.80;;
74473;SDS011;62922;-6.168;106.796;2023-01-10T12:57:13;16.33;;;5.82;;
74473;SDS011;62922;-6.168;106.796;2023-01-10T12:59:48;19.30;;;6.63;;
74473;SDS011;62922;-6.168;106.796;2023-01-10T13:02:18;21.23;;;6.78;;
74473;SDS011;62922;-6.168;106.796;2023-01-10T13:04:49;18.02;;;6.10;;
74473;SDS011;62922;-6.168;106.796;2023-01-10T13:07:19;19.25;;;5.93;;
74473;SDS011;62922;-6.168;106.796;2023-01-10T13:09:52;18.85;;;5.97;;
74473;SDS011;62922;-6.168;106.796;2023-01-10T13:12:21;19.00;;;6.53;;
74473;SDS011;62922;-6.168;106.796;2023-01-10T13:15:02;14.65;;;5.70;;
74473;SDS011;62922;-6.168;106.796;2023-01-10T13:22:34;15.88;;;6.15;;
74473;SDS011;62922;-6.168;106.796;2023-01-10T13:25:01;18.27;;;6.72;;
74473;SDS011;62922;-6.168;106.796;2023-01-10T13:27:31;16.27;;;5.95;;
74473;SDS011;62922;-6.168;106.796;2023-01-10T13:29:59;20.23;;;7.30;;
74473;SDS011;62922;-6.168;106.796;2023-01-10T13:32:27;17.77;;;7.07;;
74473;SDS011;62922;-6.168;106.796;2023-01-10T13:37:31;17.77;;;6.28;;
74473;SDS011;62922;-6.168;106.796;2023-01-10T13:40:02;19.15;;;7.20;;
74473;SDS011;62922;-6.168;106.796;2023-01-10T13:42:31;14.68;;;6.63;;
74473;SDS011;62922;-6.168;106.796;2023-01-10T13:49:59;18.80;;;7.28;;
74473;SDS011;62922;-6.168;106.796;2023-01-10T13:52:28;20.45;;;7.13;;
74473;SDS011;62922;-6.168;106.796;2023-01-10T13:54:57;19.88;;;7.47;;
74473;SDS011;62922;-6.168;106.796;2023-01-10T14:00:03;19.45;;;6.75;;
74473;SDS011;62922;-6.168;106.796;2023-01-10T14:02:32;19.35;;;6.70;;
74473;SDS011;62922;-6.168;106.796;2023-01-10T14:05:07;21.38;;;7.65;;
74473;SDS011;62922;-6.168;106.796;2023-01-10T14:07:43;17.80;;;7.75;;
74473;SDS011;62922;-6.168;106.796;2023-01-10T14:12:56;19.52;;;8.07;;
74473;SDS011;62922;-6.168;106.796;2023-01-10T14:20:44;26.42;;;8.63;;
74473;SDS011;62922;-6.168;106.796;2023-01-10T14:23:24;18.85;;;8.02;;
74473;SDS011;62922;-6.168;106.796;2023-01-10T14:26:02;19.80;;;8.85;;
74473;SDS011;62922;-6.168;106.796;2023-01-10T14:28:32;18.45;;;8.02;;
74473;SDS011;62922;-6.168;106.796;2023-01-10T14:31:03;25.77;;;8.73;;
74473;SDS011;62922;-6.168;106.796;2023-01-10T14:33:36;19.63;;;7.72;;
74473;SDS011;62922;-6.168;106.796;2023-01-10T14:36:04;19.45;;;8.05;;
74473;SDS011;62922;-6.168;106.796;2023-01-10T14:38:34;20.92;;;8.20;;
74473;SDS011;62922;-6.168;106.796;2023-01-10T14:41:05;23.52;;;9.70;;
74473;SDS011;62922;-6.168;106.796;2023-01-10T14:43:41;24.00;;;9.85;;
74473;SDS011;62922;-6.168;106.796;2023-01-10T14:46:21;16.30;;;8.52;;
74473;SDS011;62922;-6.168;106.796;2023-01-10T14:48:54;24.55;;;9.70;;
74473;SDS011;62922;-6.168;106.796;2023-01-10T14:51:27;19.98;;;10.00;;
74473;SDS011;62922;-6.168;106.796;2023-01-10T14:56:28;23.13;;;10.23;;
74473;SDS011;62922;-6.168;106.796;2023-01-10T14:59:38;24.35;;;10.50;;
74473;SDS011;62922;-6.168;106.796;2023-01-10T15:01:50;25.73;;;11.15;;
74473;SDS011;62922;-6.168;106.796;2023-01-10T15:04:26;27.35;;;11.15;;
74473;SDS011;62922;-6.168;106.796;2023-01-10T15:06:58;19.73;;;9.90;;
74473;SDS011;62922;-6.168;106.796;2023-01-10T15:09:47;30.48;;;12.23;;
74473;SDS011;62922;-6.168;106.796;2023-01-10T15:12:15;27.85;;;11.57;;
74473;SDS011;62922;-6.168;106.796;2023-01-10T15:14:44;30.25;;;11.32;;
74473;SDS011;62922;-6.168;106.796;2023-01-10T15:17:15;29.50;;;11.90;;
74473;SDS011;62922;-6.168;106.796;2023-01-10T15:19:44;29.07;;;11.47;;
74473;SDS011;62922;-6.168;106.796;2023-01-10T15:24:55;28.63;;;11.80;;
74473;SDS011;62922;-6.168;106.796;2023-01-10T15:27:26;28.67;;;11.63;;
74473;SDS011;62922;-6.168;106.796;2023-01-10T15:29:53;35.80;;;13.15;;
74473;SDS011;62922;-6.168;106.796;2023-01-10T15:34:53;31.10;;;12.90;;
74473;SDS011;62922;-6.168;106.796;2023-01-10T15:37:24;32.60;;;11.88;;
74473;SDS011;62922;-6.168;106.796;2023-01-10T15:39:58;31.50;;;12.48;;
74473;SDS011;62922;-6.168;106.796;2023-01-10T15:42:26;33.35;;;13.50;;
74473;SDS011;62922;-6.168;106.796;2023-01-10T15:44:53;32.40;;;13.95;;
74473;SDS011;62922;-6.168;106.796;2023-01-10T15:50:14;34.40;;;13.47;;
74473;SDS011;62922;-6.168;106.796;2023-01-10T15:57:46;34.33;;;14.95;;
74473;SDS011;62922;-6.168;106.796;2023-01-10T16:00:16;29.20;;;14.88;;
74473;SDS011;62922;-6.168;106.796;2023-01-10T16:02:43;32.25;;;15.63;;
74473;SDS011;62922;-6.168;106.796;2023-01-10T16:05:13;31.23;;;14.48;;
74473;SDS011;62922;-6.168;106.796;2023-01-10T16:07:43;40.00;;;16.10;;
74473;SDS011;62922;-6.168;106.796;2023-01-10T16:12:43;35.30;;;15.05;;
74473;SDS011;62922;-6.168;106.796;2023-01-10T16:15:14;38.45;;;16.48;;
74473;SDS011;62922;-6.168;106.796;2023-01-10T16:17:43;37.67;;;17.52;;
74473;SDS011;62922;-6.168;106.796;2023-01-10T16:20:13;43.45;;;17.25;;
74473;SDS011;62922;-6.168;106.796;2023-01-10T16:22:41;35.05;;;17.45;;
74473;SDS011;62922;-6.168;106.796;2023-01-10T16:27:39;40.83;;;18.23;;
74473;SDS011;62922;-6.168;106.796;2023-01-10T16:32:45;38.88;;;17.80;;
74473;SDS011;62922;-6.168;106.796;2023-01-10T16:35:11;42.58;;;18.67;;
74473;SDS011;62922;-6.168;106.796;2023-01-10T16:37:41;42.10;;;18.92;;
74473;SDS011;62922;-6.168;106.796;2023-01-10T16:40:15;43.20;;;18.80;;
74473;SDS011;62922;-6.168;106.796;2023-01-10T16:42:46;39.63;;;18.17;;
74473;SDS011;62922;-6.168;106.796;2023-01-10T16:45:14;44.45;;;20.08;;
74473;SDS011;62922;-6.168;106.796;2023-01-10T16:47:44;47.80;;;22.00;;
74473;SDS011;62922;-6.168;106.796;2023-01-10T16:50:10;43.17;;;20.60;;
74473;SDS011;62922;-6.168;106.796;2023-01-10T16:52:36;43.80;;;20.52;;